createdAt,value
2019-04-23T00:01:23.587Z,63.30
2019-04-23T00:03:27.134Z,62.90
2019-04-23T00:06:08.555Z,63.40
2019-04-23T00:08:36.536Z,63.20
2019-04-23T00:11:05.271Z,63.60
2019-04-23T00:13:50.248Z,64.00
2019-04-23T00:16:16.989Z,63.80
2019-04-23T00:18:42.281Z,63.60
2019-04-23T00:21:38.508Z,63.90
2019-04-23T00:24:13.818Z,63.80
2019-04-23T00:26:36.728Z,64.80
2019-04-23T00:29:13.480Z,64.00
2019-04-23T00:31:44.301Z,63.80
2019-04-23T00:34:26.830Z,64.30
2019-04-23T00:36:44.160Z,63.80
2019-04-23T00:39:18.922Z,63.80
2019-04-23T00:41:52.878Z,63.70
2019-04-23T00:44:22.887Z,63.50
2019-04-23T00:46:58.331Z,63.70
2019-04-23T00:49:26.563Z,63.90
2019-04-23T00:51:59.240Z,64.00
2019-04-23T00:54:31.973Z,63.90
2019-04-23T00:57:07.503Z,64.70
2019-04-23T00:59:39.046Z,65.10
2019-04-23T01:02:09.965Z,65.40
2019-04-23T01:04:40.423Z,65.30
2019-04-23T01:07:12.746Z,64.80
2019-04-23T01:09:54.186Z,65.10
2019-04-23T01:12:25.632Z,64.80
2019-04-23T01:14:52.018Z,66.00
2019-04-23T01:20:01.718Z,65.10
2019-04-23T01:22:16.678Z,65.10
2019-04-23T01:25:03.083Z,65.30
2019-04-23T01:28:08.050Z,65.20
2019-04-23T01:30:40.520Z,65.10
2019-04-23T01:33:25.547Z,65.40
2019-04-23T01:35:51.188Z,65.20
2019-04-23T01:38:25.994Z,65.40
2019-04-23T01:40:50.385Z,65.20
2019-04-23T01:43:23.755Z,66.10
2019-04-23T01:45:50.211Z,65.90
2019-04-23T01:48:26.558Z,65.70
2019-04-23T01:50:57.532Z,65.40
2019-04-23T01:53:37.114Z,66.10
2019-04-23T01:58:51.958Z,65.40
2019-04-23T02:01:07.140Z,66.20
2019-04-23T02:03:42.606Z,65.90
2019-04-23T02:06:16.573Z,66.40
2019-04-23T02:08:47.103Z,66.50
2019-04-23T02:11:13.242Z,66.10
2019-04-23T02:13:48.983Z,66.80
2019-04-23T02:16:25.774Z,66.20
2019-04-23T02:18:56.525Z,66.50
2019-04-23T02:21:47.459Z,66.80
2019-04-23T02:23:57.146Z,66.80
2019-04-23T02:26:34.167Z,66.00
2019-04-23T02:31:58.218Z,66.50
2019-04-23T02:34:31.041Z,66.60
2019-04-23T02:37:19.365Z,66.10
2019-04-23T02:39:51.940Z,66.00
2019-04-23T02:44:48.952Z,66.50
2019-04-23T02:50:12.420Z,66.10
2019-04-23T02:52:21.731Z,66.00
2019-04-23T02:55:03.893Z,65.70
2019-04-23T02:57:31.206Z,65.90
2019-04-23T03:00:11.711Z,66.10
2019-04-23T03:05:00.722Z,66.50
2019-04-23T03:10:18.325Z,66.70
2019-04-23T03:12:58.725Z,66.50
2019-04-23T03:15:43.652Z,66.50
2019-04-23T03:18:33.220Z,66.60
2019-04-23T03:21:09.957Z,66.40
2019-04-23T03:23:36.614Z,66.00
2019-04-23T03:26:09.320Z,66.60
2019-04-23T03:28:42.924Z,66.60
2019-04-23T03:32:48.579Z,66.60
2019-04-23T03:41:21.526Z,66.90
2019-04-23T03:43:51.766Z,67.40
2019-04-23T03:51:26.011Z,67.70
2019-04-23T03:54:20.423Z,67.70
2019-04-23T03:56:45.088Z,67.30
2019-04-23T04:01:34.332Z,67.60
2019-04-23T04:06:59.467Z,67.70
2019-04-23T04:09:28.697Z,67.90
2019-04-23T04:11:33.627Z,68.00
2019-04-23T04:16:49.672Z,68.70
2019-04-23T04:21:52.006Z,68.20
2019-04-23T04:27:10.171Z,69.00
2019-04-23T04:29:40.865Z,68.70
2019-04-23T04:32:00.461Z,69.00
2019-04-23T04:40:01.219Z,69.50
2019-04-23T04:42:10.332Z,69.20
2019-04-23T04:47:21.447Z,69.60
2019-04-23T04:49:55.728Z,69.70
2019-04-23T04:52:34.215Z,69.60
2019-04-23T04:54:51.906Z,70.00
2019-04-23T04:57:36.802Z,70.00
2019-04-23T05:02:37.789Z,70.10
2019-04-23T05:07:36.097Z,70.70
2019-04-23T05:10:21.269Z,70.90
2019-04-23T05:15:16.808Z,70.90
2019-04-23T05:23:11.304Z,71.00
2019-04-23T05:25:33.093Z,71.30
2019-04-23T05:28:09.624Z,71.90
2019-04-23T05:30:38.093Z,71.60
2019-04-23T05:33:13.370Z,71.90
2019-04-23T05:36:09.146Z,71.50
2019-04-23T05:43:19.285Z,71.70
2019-04-23T05:45:49.094Z,72.30
2019-04-23T05:51:04.269Z,72.40
2019-04-23T05:53:27.809Z,72.00
2019-04-23T05:56:01.935Z,72.50
2019-04-23T05:58:36.960Z,72.60
2019-04-23T06:04:12.308Z,72.20
2019-04-23T06:11:56.890Z,72.80
2019-04-23T06:14:20.443Z,73.50
2019-04-23T06:21:57.568Z,72.40
2019-04-23T06:24:33.001Z,72.40
2019-04-23T06:29:33.053Z,73.40
2019-04-23T06:31:55.211Z,72.70
2019-04-23T06:34:31.463Z,72.50
2019-04-23T06:37:06.888Z,72.70
2019-04-23T06:39:36.750Z,73.60
2019-04-23T06:42:08.103Z,73.00
2019-04-23T06:47:20.079Z,73.00
2019-04-23T06:49:55.940Z,73.20
2019-04-23T06:52:26.554Z,72.90
2019-04-23T06:57:28.515Z,72.80
2019-04-23T07:00:10.274Z,73.20
2019-04-23T07:02:41.602Z,72.80
2019-04-23T07:05:15.983Z,72.70
2019-04-23T07:10:19.817Z,72.60
2019-04-23T07:12:47.154Z,72.40
2019-04-23T07:17:51.962Z,72.50
2019-04-23T07:20:19.920Z,72.30
2019-04-23T07:22:58.166Z,72.40
2019-04-23T07:25:23.958Z,71.80
2019-04-23T07:27:58.501Z,72.30
2019-04-23T07:30:33.339Z,72.00
2019-04-23T07:33:04.186Z,72.00
2019-04-23T07:35:31.712Z,72.10
2019-04-23T07:38:31.504Z,71.50
2019-04-23T07:41:11.942Z,71.60
2019-04-23T07:43:54.479Z,72.40
2019-04-23T07:47:13.155Z,71.70
2019-04-23T07:49:31.080Z,71.80
2019-04-23T07:52:10.655Z,71.90
2019-04-23T07:54:38.792Z,71.70
2019-04-23T07:57:13.504Z,71.70
2019-04-23T07:59:48.699Z,71.90
2019-04-23T08:02:24.127Z,70.90
2019-04-23T08:05:03.511Z,71.70
2019-04-23T08:07:19.929Z,70.50
2019-04-23T08:09:57.591Z,70.70
2019-04-23T08:12:25.580Z,69.80
2019-04-23T08:14:59.838Z,70.10
2019-04-23T08:17:27.846Z,70.00
2019-04-23T08:20:05.787Z,70.10
2019-04-23T08:22:32.364Z,70.10
2019-04-23T08:25:40.733Z,69.60
2019-04-23T08:28:13.546Z,71.00
2019-04-23T08:30:46.539Z,69.10
2019-04-23T08:33:17.581Z,69.20
2019-04-23T08:35:55.739Z,69.60
2019-04-23T08:38:26.101Z,69.60
2019-04-23T08:41:06.116Z,68.80
2019-04-23T08:43:36.417Z,66.80
2019-04-23T08:46:14.005Z,67.20
2019-04-23T08:48:41.347Z,68.20
2019-04-23T08:51:31.885Z,67.10
2019-04-23T08:53:51.612Z,66.10
2019-04-23T08:56:23.672Z,66.30
2019-04-23T08:58:49.341Z,65.30
2019-04-23T09:01:29.820Z,64.60
2019-04-23T09:03:54.588Z,62.70
2019-04-23T09:06:47.262Z,63.50
2019-04-23T09:08:58.535Z,63.70
2019-04-23T09:11:44.021Z,63.30
2019-04-23T09:14:02.341Z,64.50
2019-04-23T09:21:39.933Z,61.10
2019-04-23T09:24:09.586Z,60.60
2019-04-23T09:26:56.183Z,59.20
2019-04-23T09:29:19.951Z,60.40
2019-04-23T09:35:00.817Z,59.40
2019-04-23T09:37:41.961Z,57.60
2019-04-23T09:40:27.126Z,58.80
2019-04-23T09:43:08.758Z,58.70
2019-04-23T09:45:57.475Z,58.70
2019-04-23T09:48:27.310Z,59.30
2019-04-23T09:56:01.193Z,59.00
2019-04-23T09:58:34.589Z,57.60
2019-04-23T10:03:50.832Z,56.10
2019-04-23T10:06:18.306Z,56.60
2019-04-23T10:08:49.418Z,56.30
2019-04-23T10:11:15.955Z,55.40
2019-04-23T10:13:46.270Z,54.40
2019-04-23T10:16:19.459Z,52.80
2019-04-23T10:18:49.107Z,52.00
2019-04-23T10:21:19.613Z,52.10
2019-04-23T10:23:51.541Z,53.00
2019-04-23T10:26:23.934Z,51.70
2019-04-23T10:29:07.755Z,52.00
2019-04-23T10:31:39.878Z,52.20
2019-04-23T10:34:10.338Z,52.70
2019-04-23T10:36:42.693Z,52.40
2019-04-23T10:39:21.191Z,52.60
2019-04-23T10:41:48.185Z,52.30
2019-04-23T10:44:58.883Z,52.40
2019-04-23T10:48:24.662Z,52.80
2019-04-23T10:50:57.690Z,52.50
2019-04-23T10:53:38.330Z,52.10
2019-04-23T10:56:21.386Z,52.50
2019-04-23T10:58:36.930Z,51.20
2019-04-23T11:04:02.825Z,51.60
2019-04-23T11:06:20.419Z,51.70
2019-04-23T11:08:45.572Z,51.10
2019-04-23T11:11:21.893Z,50.10
2019-04-23T11:13:53.026Z,51.10
2019-04-23T11:16:45.918Z,50.20
2019-04-23T11:21:51.201Z,51.30
2019-04-23T11:24:19.016Z,49.70
2019-04-23T11:26:37.048Z,49.50
2019-04-23T11:29:16.349Z,49.40
2019-04-23T11:31:46.145Z,48.80
2019-04-23T11:34:26.588Z,48.70
2019-04-23T11:39:16.236Z,49.30
2019-04-23T11:42:04.885Z,49.20
2019-04-23T11:49:44.936Z,50.30
2019-04-23T11:52:05.678Z,49.30
2019-04-23T11:59:36.106Z,48.00
2019-04-23T12:02:07.585Z,48.10
2019-04-23T12:05:05.759Z,48.80
2019-04-23T12:07:39.440Z,47.80
2019-04-23T12:10:44.543Z,47.10
2019-04-23T12:13:03.909Z,47.50
2019-04-23T12:15:32.054Z,46.70
2019-04-23T12:18:29.950Z,47.80
2019-04-23T12:20:37.610Z,46.90
2019-04-23T12:24:17.174Z,47.00
2019-04-23T12:28:14.085Z,47.60
2019-04-23T12:30:52.137Z,48.40
2019-04-23T12:35:54.008Z,47.90
2019-04-23T12:38:28.313Z,47.70
2019-04-23T12:40:56.330Z,48.80
2019-04-23T12:43:25.746Z,48.20
2019-04-23T12:45:57.617Z,47.50
2019-04-23T12:51:08.920Z,48.70
2019-04-23T12:53:53.152Z,49.20
2019-04-23T12:56:21.349Z,50.00
2019-04-23T12:58:56.327Z,49.20
2019-04-23T13:01:14.005Z,49.40
2019-04-23T13:03:59.430Z,49.70
2019-04-23T13:06:20.867Z,49.40
2019-04-23T13:11:33.331Z,49.50
2019-04-23T13:13:58.639Z,49.80
2019-04-23T13:16:39.469Z,48.40
2019-04-23T13:19:06.714Z,49.10
2019-04-23T13:21:51.780Z,48.70
2019-04-23T13:24:43.698Z,48.10
2019-04-23T13:27:19.867Z,48.70
2019-04-23T13:29:50.078Z,48.80
2019-04-23T13:32:20.498Z,48.90
2019-04-23T13:34:58.889Z,49.40
2019-04-23T13:37:31.696Z,50.40
2019-04-23T13:39:52.965Z,49.70
2019-04-23T13:42:37.225Z,49.70
2019-04-23T13:45:05.252Z,49.50
2019-04-23T13:47:41.401Z,50.70
2019-04-23T13:50:13.100Z,49.00
2019-04-23T13:53:02.652Z,49.70
2019-04-23T13:58:02.267Z,50.80
2019-04-23T14:00:20.994Z,50.10
2019-04-23T14:05:27.082Z,50.40
2019-04-23T14:08:07.023Z,50.40
2019-04-23T14:10:35.986Z,50.50
2019-04-23T14:13:23.880Z,50.90
2019-04-23T14:15:42.090Z,51.50
2019-04-23T14:18:43.120Z,51.60
2019-04-23T14:25:52.115Z,52.00
2019-04-23T14:28:21.603Z,52.30
2019-04-23T14:30:53.817Z,51.60
2019-04-23T14:33:23.165Z,50.50
2019-04-23T14:35:54.485Z,51.10
2019-04-23T14:41:12.467Z,50.60
2019-04-23T14:43:31.472Z,50.70
2019-04-23T14:48:56.712Z,50.40
2019-04-23T14:53:45.770Z,51.20
2019-04-23T14:56:16.203Z,50.50
2019-04-23T15:03:49.304Z,51.00
2019-04-23T15:06:37.961Z,51.50
2019-04-23T15:09:06.257Z,51.00
2019-04-23T15:14:01.947Z,50.20
2019-04-23T15:16:39.169Z,51.00
2019-04-23T15:21:53.765Z,51.00
2019-04-23T15:27:35.965Z,51.30
2019-04-23T15:27:45.566Z,50.50
2019-04-23T15:29:08.513Z,50.40
2019-04-23T15:34:23.944Z,50.90
2019-04-23T15:37:13.522Z,51.30
2019-04-23T15:39:56.644Z,51.30
2019-04-23T15:42:12.686Z,51.40
2019-04-23T15:44:39.401Z,51.40
2019-04-23T15:47:28.288Z,51.80
2019-04-23T15:49:47.443Z,51.80
2019-04-23T15:52:10.833Z,52.40
2019-04-23T15:54:50.535Z,52.40
2019-04-23T15:57:30.699Z,51.90
2019-04-23T16:01:55.796Z,52.60
2019-04-23T16:04:27.619Z,53.00
2019-04-23T16:06:59.438Z,52.60
2019-04-23T16:10:04.335Z,53.00
2019-04-23T16:12:27.728Z,52.60
2019-04-23T16:17:41.710Z,53.70
2019-04-23T16:20:40.503Z,53.10
2019-04-23T16:22:55.982Z,53.50
2019-04-23T16:25:38.017Z,53.70
2019-04-23T16:28:09.366Z,53.90
2019-04-23T16:30:46.253Z,53.90
2019-04-23T16:33:35.323Z,54.00
2019-04-23T16:36:05.589Z,54.40
2019-04-23T16:38:45.575Z,54.60
2019-04-23T16:41:07.720Z,54.50
2019-04-23T16:43:35.253Z,55.00
2019-04-23T16:46:11.482Z,55.40
2019-04-23T16:48:49.236Z,55.00
2019-04-23T16:53:41.816Z,55.70
2019-04-23T16:56:16.643Z,55.90
2019-04-23T16:58:52.681Z,56.00
2019-04-23T17:01:12.374Z,55.80
2019-04-23T17:03:59.981Z,55.60
2019-04-23T17:06:27.157Z,56.10
2019-04-23T17:08:57.924Z,54.90
2019-04-23T17:11:30.930Z,55.40
2019-04-23T17:19:13.372Z,55.50
2019-04-23T17:21:39.004Z,55.70
2019-04-23T17:27:03.861Z,55.50
2019-04-23T17:29:17.607Z,56.10
2019-04-23T17:32:04.109Z,56.50
2019-04-23T17:34:30.856Z,56.40
2019-04-23T17:37:07.013Z,56.70
2019-04-23T17:42:55.495Z,57.10
2019-04-23T17:48:13.477Z,57.80
2019-04-23T17:50:56.775Z,57.90
2019-04-23T17:53:25.279Z,58.10
2019-04-23T17:56:15.256Z,58.30
2019-04-23T17:58:28.556Z,58.70
2019-04-23T18:01:16.998Z,58.80
2019-04-23T18:03:52.812Z,58.90
2019-04-23T18:08:54.011Z,59.50
2019-04-23T18:11:21.552Z,60.00
2019-04-23T18:13:49.799Z,59.70
2019-04-23T18:16:32.945Z,59.80
2019-04-23T18:24:37.757Z,60.30
2019-04-23T18:27:16.970Z,60.70
2019-04-23T18:30:00.777Z,61.20
2019-04-23T18:32:44.638Z,61.50
2019-04-23T18:40:05.164Z,62.30
2019-04-23T18:43:07.334Z,62.70
2019-04-23T18:45:22.883Z,62.80
2019-04-23T18:50:30.078Z,63.40
2019-04-23T18:52:56.941Z,64.20
2019-04-23T18:55:37.036Z,64.50
2019-04-23T18:57:57.361Z,64.70
2019-04-23T19:00:57.802Z,64.70
2019-04-23T19:05:58.723Z,65.40
2019-04-23T19:08:54.106Z,65.50
2019-04-23T19:11:41.807Z,65.70
2019-04-23T19:13:57.313Z,66.10
2019-04-23T19:16:37.644Z,66.00
2019-04-23T19:19:02.157Z,66.30
2019-04-23T19:22:00.957Z,66.70
2019-04-23T19:24:03.380Z,67.30
2019-04-23T19:32:01.838Z,67.10
2019-04-23T19:39:46.865Z,67.70
2019-04-23T19:42:15.679Z,68.10
2019-04-23T19:47:38.543Z,68.20
2019-04-23T19:49:57.063Z,68.10
2019-04-23T19:52:52.297Z,68.20
2019-04-23T19:57:42.690Z,68.70
2019-04-23T20:00:04.331Z,69.00
2019-04-23T20:02:55.344Z,69.10
2019-04-23T20:05:07.277Z,69.20
2019-04-23T20:07:54.171Z,69.40
2019-04-23T20:10:12.334Z,69.70
2019-04-23T20:12:51.817Z,70.00
2019-04-23T20:15:14.149Z,70.10
2019-04-23T20:17:53.868Z,70.60
2019-04-23T20:20:35.390Z,70.90
2019-04-23T20:28:16.932Z,71.30
2019-04-23T20:36:14.069Z,72.10
2019-04-23T20:43:48.994Z,73.10
2019-04-23T20:46:27.368Z,73.40
2019-04-23T20:51:24.784Z,74.20
2019-04-23T20:53:57.315Z,74.70
2019-04-23T20:59:00.171Z,75.60
2019-04-23T21:01:48.148Z,76.30
2019-04-23T21:04:17.607Z,76.90
2019-04-23T21:06:50.361Z,77.50
2019-04-23T21:12:06.708Z,78.60
2019-04-23T21:16:56.071Z,79.70
2019-04-23T21:19:32.678Z,80.20
2019-04-23T21:22:13.928Z,81.00
2019-04-23T21:24:42.430Z,81.60
2019-04-23T21:27:38.643Z,82.20
2019-04-23T21:32:43.771Z,83.20
2019-04-23T21:41:00.912Z,85.10
2019-04-23T21:43:47.384Z,85.70
2019-04-23T21:46:14.590Z,86.50
2019-04-23T21:48:53.193Z,87.30
2019-04-23T21:51:24.187Z,88.30
2019-04-23T21:53:50.680Z,89.20
2019-04-23T21:56:15.226Z,89.90
2019-04-23T21:58:57.834Z,90.40
2019-04-23T22:04:08.905Z,91.00
2019-04-23T22:06:36.963Z,91.50
2019-04-23T22:19:21.362Z,92.60
2019-04-23T22:21:47.278Z,92.90
2019-04-23T22:26:58.139Z,93.40
2019-04-23T22:37:09.855Z,94.10
2019-04-23T22:39:32.045Z,94.30
2019-04-23T22:42:04.345Z,94.20
2019-04-23T22:44:48.139Z,94.40
2019-04-23T22:47:19.278Z,94.40
2019-04-23T22:49:47.429Z,94.40
2019-04-23T22:52:31.473Z,94.50
2019-04-23T22:54:57.158Z,94.40
2019-04-23T22:57:12.641Z,94.60
2019-04-23T23:00:04.388Z,94.70
2019-04-23T23:07:47.020Z,94.90
2019-04-23T23:12:52.876Z,95.00
2019-04-23T23:18:08.568Z,95.00
2019-04-23T23:20:25.462Z,95.10
2019-04-23T23:23:05.628Z,95.00
2019-04-23T23:25:25.592Z,95.10
2019-04-23T23:28:12.116Z,95.20
2019-04-23T23:30:33.438Z,95.40
2019-04-23T23:33:04.141Z,95.50
2019-04-23T23:38:09.831Z,95.80
2019-04-23T23:40:35.404Z,96.00
2019-04-23T23:45:45.522Z,96.40
2019-04-23T23:48:12.978Z,96.50
2019-04-23T23:50:57.034Z,96.70
2019-04-23T23:53:24.961Z,96.90
2019-04-23T23:55:58.721Z,97.00
